createdAt,value
2023-02-18T00:01:14.207Z,44.75
2023-02-18T00:03:42.741Z,45.83
2023-02-18T00:06:25.185Z,45.10
2023-02-18T00:08:53.377Z,50.40
2023-02-18T00:11:21.929Z,50.58
2023-02-18T00:14:01.133Z,44.50
2023-02-18T00:16:29.309Z,44.15
2023-02-18T00:18:58.322Z,42.58
2023-02-18T00:21:26.418Z,44.10
2023-02-18T00:23:54.553Z,47.83
2023-02-18T00:26:22.786Z,44.58
2023-02-18T00:28:52.038Z,43.92
2023-02-18T00:31:32.430Z,46.90
2023-02-18T00:34:02.629Z,45.60
2023-02-18T00:36:30.653Z,43.58
2023-02-18T00:39:00.902Z,49.85
2023-02-18T00:41:29.158Z,50.33
2023-02-18T00:43:58.360Z,49.60
2023-02-18T00:46:26.540Z,52.28
2023-02-18T00:48:55.331Z,49.15
2023-02-18T00:51:23.552Z,52.65
2023-02-18T00:53:51.968Z,46.00
2023-02-18T00:56:20.071Z,52.17
2023-02-18T00:58:48.273Z,64.47
2023-02-18T01:01:16.281Z,59.70
2023-02-18T01:03:44.935Z,63.30
2023-02-18T01:06:13.321Z,61.00
2023-02-18T01:08:41.137Z,56.85
2023-02-18T01:11:09.849Z,54.65
2023-02-18T01:13:37.958Z,58.58
2023-02-18T01:16:07.988Z,66.80
2023-02-18T01:18:36.524Z,53.92
2023-02-18T01:21:08.980Z,55.05
2023-02-18T01:23:41.130Z,65.13
2023-02-18T01:26:10.120Z,64.80
2023-02-18T01:28:39.473Z,55.58
2023-02-18T01:31:09.034Z,64.25
2023-02-18T01:33:37.130Z,74.95
2023-02-18T01:36:06.242Z,67.70
2023-02-18T01:38:34.629Z,61.17
2023-02-18T01:41:02.610Z,51.17
2023-02-18T01:43:30.751Z,50.65
2023-02-18T01:46:07.013Z,66.78
2023-02-18T01:48:49.283Z,66.47
2023-02-18T01:51:23.254Z,60.28
2023-02-18T01:53:58.223Z,60.58
2023-02-18T01:56:54.417Z,60.25
2023-02-18T01:59:28.886Z,59.50
2023-02-18T02:01:56.823Z,74.20
2023-02-18T02:04:25.089Z,72.97
2023-02-18T02:06:53.031Z,65.03
2023-02-18T02:09:25.399Z,54.15
2023-02-18T02:12:08.219Z,57.72
2023-02-18T02:17:59.650Z,57.55
2023-02-18T02:20:52.395Z,67.43
2023-02-18T02:23:53.831Z,63.53
2023-02-18T02:26:45.979Z,39.22
2023-02-18T02:29:16.649Z,37.80
2023-02-18T02:32:02.324Z,48.10
2023-02-18T02:34:35.412Z,47.80
2023-02-18T02:37:26.175Z,48.63
2023-02-18T02:40:13.272Z,48.70
2023-02-18T02:43:05.842Z,52.80
2023-02-18T02:45:56.192Z,48.50
2023-02-18T02:48:47.616Z,51.80
2023-02-18T02:51:47.102Z,54.90
2023-02-18T02:54:24.217Z,54.85
2023-02-18T02:57:10.407Z,59.13
2023-02-18T02:59:48.816Z,64.78
2023-02-18T03:02:38.421Z,66.43
2023-02-18T03:05:45.854Z,69.57
2023-02-18T03:08:16.340Z,69.07
2023-02-18T03:10:58.047Z,91.63
2023-02-18T03:13:34.959Z,91.78
2023-02-18T03:16:36.306Z,99.10
2023-02-18T03:19:33.751Z,108.63
2023-02-18T03:22:09.311Z,163.20
2023-02-18T03:24:44.725Z,241.05
2023-02-18T03:27:27.972Z,245.30
2023-02-18T03:30:03.113Z,298.45
2023-02-18T03:32:31.197Z,296.90
2023-02-18T03:35:04.588Z,313.17
2023-02-18T03:37:33.793Z,332.63
2023-02-18T03:40:01.517Z,343.20
2023-02-18T03:42:29.874Z,359.15
2023-02-18T03:44:57.886Z,317.33
2023-02-18T03:47:26.302Z,326.20
2023-02-18T03:49:53.992Z,269.45
2023-02-18T03:52:21.807Z,238.75
2023-02-18T03:54:51.931Z,239.43
2023-02-18T03:57:19.700Z,219.25
2023-02-18T03:59:47.762Z,207.85
2023-02-18T04:02:15.843Z,184.32
2023-02-18T04:04:43.878Z,193.48
2023-02-18T04:07:11.982Z,177.27
2023-02-18T04:09:40.168Z,178.20
2023-02-18T04:12:08.113Z,167.25
2023-02-18T04:14:36.089Z,163.98
2023-02-18T04:17:04.180Z,170.73
2023-02-18T04:19:32.339Z,166.70
2023-02-18T04:22:00.468Z,171.40
2023-02-18T04:24:28.450Z,161.52
2023-02-18T04:26:56.497Z,156.32
2023-02-18T04:29:24.609Z,153.32
2023-02-18T04:31:52.814Z,151.68
2023-02-18T04:34:20.650Z,159.07
2023-02-18T04:36:48.435Z,155.55
2023-02-18T04:39:16.312Z,138.73
2023-02-18T04:41:44.577Z,108.07
2023-02-18T04:44:12.958Z,104.57
2023-02-18T04:46:40.998Z,95.95
2023-02-18T04:49:09.064Z,94.35
2023-02-18T04:51:38.340Z,99.18
2023-02-18T04:54:06.113Z,94.85
2023-02-18T04:56:34.124Z,101.72
2023-02-18T04:59:01.829Z,113.40
2023-02-18T05:01:29.665Z,117.47
2023-02-18T05:03:57.701Z,129.82
2023-02-18T05:06:25.792Z,131.70
2023-02-18T05:08:53.851Z,149.60
2023-02-18T05:11:21.918Z,137.63
2023-02-18T05:13:50.021Z,143.63
2023-02-18T05:16:18.103Z,152.48
2023-02-18T05:18:46.072Z,147.30
2023-02-18T05:21:14.084Z,144.60
2023-02-18T05:23:41.852Z,146.30
2023-02-18T05:26:10.261Z,138.98
2023-02-18T05:28:38.308Z,136.52
2023-02-18T05:31:06.389Z,135.40
2023-02-18T05:33:34.316Z,130.55
2023-02-18T05:36:02.378Z,129.93
2023-02-18T05:38:30.104Z,115.43
2023-02-18T05:40:58.237Z,131.45
2023-02-18T05:43:26.200Z,126.80
2023-02-18T05:45:54.218Z,125.65
2023-02-18T05:48:22.154Z,128.50
2023-02-18T05:50:54.545Z,128.48
2023-02-18T05:53:22.552Z,135.50
2023-02-18T05:55:50.407Z,131.00
2023-02-18T05:58:18.603Z,130.70
2023-02-18T06:00:46.442Z,130.38
2023-02-18T06:03:14.566Z,127.70
2023-02-18T06:05:42.293Z,127.70
2023-02-18T06:08:10.057Z,118.72
2023-02-18T06:10:38.482Z,113.55
2023-02-18T06:13:06.793Z,117.18
2023-02-18T06:15:34.894Z,107.03
2023-02-18T06:18:02.902Z,112.32
2023-02-18T06:20:31.203Z,112.38
2023-02-18T06:22:59.286Z,109.25
2023-02-18T06:25:27.419Z,101.38
2023-02-18T06:27:55.495Z,84.13
2023-02-18T06:30:25.078Z,63.05
2023-02-18T06:32:52.728Z,60.13
2023-02-18T06:35:20.518Z,56.40
2023-02-18T06:37:48.521Z,57.40
2023-02-18T06:40:16.751Z,53.10
2023-02-18T06:42:44.921Z,54.67
2023-02-18T06:45:12.962Z,54.40
2023-02-18T06:47:41.062Z,50.08
2023-02-18T06:50:09.299Z,53.65
2023-02-18T06:52:38.816Z,56.15
2023-02-18T06:55:07.447Z,48.25
2023-02-18T06:57:35.540Z,49.78
2023-02-18T07:00:05.747Z,49.88
2023-02-18T07:02:34.567Z,49.65
2023-02-18T07:05:02.373Z,50.20
2023-02-18T07:07:30.373Z,45.53
2023-02-18T07:09:58.785Z,49.67
2023-02-18T07:12:26.622Z,47.38
2023-02-18T07:14:54.578Z,47.40
2023-02-18T07:17:22.517Z,52.25
2023-02-18T07:19:50.299Z,47.97
2023-02-18T07:22:18.454Z,46.88
2023-02-18T07:24:46.433Z,49.47
2023-02-18T07:27:14.241Z,53.72
2023-02-18T07:29:42.227Z,56.25
2023-02-18T07:32:12.733Z,50.85
2023-02-18T07:34:40.939Z,54.47
2023-02-18T07:37:10.283Z,50.65
2023-02-18T07:39:40.829Z,53.58
2023-02-18T07:42:09.677Z,52.28
2023-02-18T07:44:38.413Z,50.75
2023-02-18T07:47:06.628Z,54.30
2023-02-18T07:49:34.328Z,53.17
2023-02-18T07:52:04.454Z,51.63
2023-02-18T07:54:32.545Z,49.92
2023-02-18T07:57:00.685Z,49.15
2023-02-18T07:59:28.784Z,47.00
2023-02-18T08:01:56.953Z,48.05
2023-02-18T08:04:25.115Z,47.50
2023-02-18T08:06:53.107Z,52.80
2023-02-18T08:09:21.230Z,52.03
2023-02-18T08:11:49.119Z,55.15
2023-02-18T08:14:17.426Z,54.13
2023-02-18T08:16:48.413Z,55.58
2023-02-18T08:19:17.068Z,52.85
2023-02-18T08:21:48.224Z,50.03
2023-02-18T08:24:16.660Z,43.70
2023-02-18T08:26:59.513Z,45.13
2023-02-18T08:29:28.771Z,44.50
2023-02-18T08:31:58.537Z,44.15
2023-02-18T08:34:26.972Z,40.60
2023-02-18T08:36:55.230Z,38.60
2023-02-18T08:39:23.759Z,42.05
2023-02-18T08:41:51.754Z,36.63
2023-02-18T08:44:19.468Z,39.45
2023-02-18T08:46:48.931Z,41.20
2023-02-18T08:49:17.429Z,35.85
2023-02-18T08:51:45.236Z,39.30
2023-02-18T08:54:13.397Z,32.67
2023-02-18T08:56:42.351Z,35.10
2023-02-18T08:59:10.598Z,36.40
2023-02-18T09:01:38.441Z,36.47
2023-02-18T09:04:06.608Z,35.67
2023-02-18T09:06:38.189Z,35.83
2023-02-18T09:09:06.755Z,35.95
2023-02-18T09:11:34.601Z,37.55
2023-02-18T09:14:03.632Z,37.55
2023-02-18T09:16:32.895Z,36.70
2023-02-18T09:19:01.336Z,37.22
2023-02-18T09:21:29.189Z,38.58
2023-02-18T09:23:57.558Z,37.92
2023-02-18T09:26:26.950Z,37.72
2023-02-18T09:28:55.650Z,37.15
2023-02-18T09:31:24.989Z,35.60
2023-02-18T09:33:55.826Z,37.10
2023-02-18T09:36:23.905Z,39.20
2023-02-18T09:38:52.326Z,36.00
2023-02-18T09:41:35.776Z,36.33
2023-02-18T09:44:12.169Z,35.42
2023-02-18T09:46:41.529Z,35.85
2023-02-18T09:49:15.994Z,36.05
2023-02-18T09:51:44.541Z,35.75
2023-02-18T09:54:13.178Z,34.80
2023-02-18T09:56:41.658Z,37.63
2023-02-18T09:59:14.320Z,38.15
2023-02-18T10:01:42.276Z,34.33
2023-02-18T10:04:26.101Z,35.28
2023-02-18T10:06:54.746Z,34.15
2023-02-18T10:09:33.635Z,39.58
2023-02-18T10:12:20.458Z,38.60
2023-02-18T10:14:56.111Z,37.25
2023-02-18T10:17:25.304Z,38.95
2023-02-18T10:19:54.287Z,34.38
2023-02-18T10:22:23.318Z,33.58
2023-02-18T10:25:05.552Z,35.60
2023-02-18T10:27:35.544Z,34.83
2023-02-18T10:30:22.622Z,32.28
2023-02-18T10:32:54.904Z,31.00
2023-02-18T10:35:34.772Z,33.85
2023-02-18T10:38:06.119Z,34.63
2023-02-18T10:40:39.737Z,34.45
2023-02-18T10:43:10.853Z,36.70
2023-02-18T10:45:59.279Z,35.97
2023-02-18T10:48:56.053Z,35.45
2023-02-18T10:51:30.000Z,33.88
2023-02-18T10:53:58.270Z,34.13
2023-02-18T10:56:44.055Z,34.05
2023-02-18T10:59:13.496Z,36.03
2023-02-18T11:01:42.236Z,35.50
2023-02-18T11:04:20.969Z,37.63
2023-02-18T11:06:49.857Z,35.40
2023-02-18T11:09:36.434Z,37.20
2023-02-18T11:12:08.741Z,33.42
2023-02-18T11:14:48.311Z,36.50
2023-02-18T11:17:19.357Z,36.90
2023-02-18T11:19:55.653Z,37.47
2023-02-18T11:22:26.234Z,38.13
2023-02-18T11:24:58.945Z,38.92
2023-02-18T11:27:42.835Z,38.20
2023-02-18T11:30:21.210Z,45.83
2023-02-18T11:32:50.204Z,52.08
2023-02-18T11:35:23.478Z,68.15
2023-02-18T11:37:51.605Z,72.70
2023-02-18T11:40:33.241Z,74.50
2023-02-18T11:43:21.603Z,86.22
2023-02-18T11:45:49.539Z,67.35
2023-02-18T11:48:19.415Z,70.38
2023-02-18T11:50:47.110Z,77.88
2023-02-18T11:53:35.527Z,69.03
2023-02-18T11:56:06.399Z,56.35
2023-02-18T11:58:42.536Z,56.70
2023-02-18T12:01:21.383Z,54.85
2023-02-18T12:04:01.155Z,54.28
2023-02-18T12:06:32.818Z,55.03
2023-02-18T12:09:13.244Z,54.67
2023-02-18T12:11:43.113Z,55.50
2023-02-18T12:14:17.857Z,54.10
2023-02-18T12:17:04.258Z,53.03
2023-02-18T12:19:54.408Z,47.58
2023-02-18T12:22:24.176Z,43.72
2023-02-18T12:25:04.915Z,46.42
2023-02-18T12:27:44.034Z,46.28
2023-02-18T12:30:21.060Z,46.28
2023-02-18T12:32:54.569Z,46.22
2023-02-18T12:35:50.300Z,51.10
2023-02-18T12:38:51.981Z,57.85
2023-02-18T12:41:30.907Z,56.10
2023-02-18T12:44:26.474Z,54.88
2023-02-18T12:47:16.462Z,58.85
2023-02-18T12:50:31.310Z,60.30
2023-02-18T12:53:27.909Z,68.15
2023-02-18T12:56:08.719Z,78.47
2023-02-18T12:59:00.494Z,81.25
2023-02-18T13:01:45.504Z,89.90
2023-02-18T13:04:18.158Z,100.80
2023-02-18T13:07:27.984Z,109.43
2023-02-18T13:10:28.423Z,107.38
2023-02-18T13:13:08.706Z,108.05
2023-02-18T13:15:54.215Z,107.68
2023-02-18T13:18:35.204Z,107.15
2023-02-18T13:21:10.598Z,105.35
2023-02-18T13:23:54.327Z,103.45
2023-02-18T13:26:22.433Z,107.78
2023-02-18T13:29:05.603Z,117.07
2023-02-18T13:32:08.295Z,132.32
2023-02-18T13:34:58.596Z,129.85
2023-02-18T13:37:44.476Z,118.15
2023-02-18T13:40:28.161Z,116.55
2023-02-18T13:42:59.137Z,127.65
2023-02-18T13:45:29.722Z,136.13
2023-02-18T13:47:58.795Z,129.75
2023-02-18T13:50:32.011Z,120.50
2023-02-18T13:53:09.136Z,120.47
2023-02-18T13:55:41.510Z,114.45
2023-02-18T13:58:19.194Z,100.93
2023-02-18T14:01:13.398Z,101.97
2023-02-18T14:03:44.283Z,82.88
2023-02-18T14:06:23.332Z,74.45
2023-02-18T14:08:51.484Z,73.90
2023-02-18T14:11:22.445Z,88.68
2023-02-18T14:14:18.016Z,100.85
2023-02-18T14:17:13.902Z,84.35
2023-02-18T14:19:42.015Z,91.53
2023-02-18T14:22:29.566Z,89.95
2023-02-18T14:25:13.885Z,81.88
2023-02-18T14:27:42.074Z,77.05
2023-02-18T14:30:23.354Z,114.57
2023-02-18T14:32:52.906Z,121.07
2023-02-18T14:35:40.108Z,117.47
2023-02-18T14:38:31.305Z,127.30
2023-02-18T14:41:14.619Z,116.10
2023-02-18T14:44:11.228Z,120.10
2023-02-18T14:46:48.163Z,108.07
2023-02-18T14:49:38.893Z,120.40
2023-02-18T14:52:11.227Z,143.10
2023-02-18T14:57:10.261Z,177.18
2023-02-18T14:59:42.212Z,209.05
2023-02-18T15:02:20.146Z,183.23
2023-02-18T15:04:48.578Z,157.95
2023-02-18T15:07:18.954Z,167.15
2023-02-18T15:09:49.099Z,163.82
2023-02-18T15:12:23.938Z,156.02
2023-02-18T15:14:53.663Z,114.07
2023-02-18T15:17:25.444Z,108.13
2023-02-18T15:19:56.191Z,120.63
2023-02-18T15:22:26.531Z,124.00
2023-02-18T15:24:55.847Z,118.63
2023-02-18T15:27:35.559Z,103.65
2023-02-18T15:30:16.603Z,90.20
2023-02-18T15:32:57.733Z,73.70
2023-02-18T15:35:33.577Z,49.92
2023-02-18T15:38:02.068Z,71.75
2023-02-18T15:40:34.683Z,64.65
2023-02-18T15:43:04.505Z,77.88
2023-02-18T15:45:37.471Z,74.00
2023-02-18T15:48:06.659Z,72.30
2023-02-18T15:50:39.063Z,69.78
2023-02-18T15:53:15.390Z,59.70
2023-02-18T15:55:44.492Z,60.85
2023-02-18T15:58:33.646Z,61.00
2023-02-18T16:01:03.908Z,60.80
2023-02-18T16:03:33.046Z,63.67
2023-02-18T16:06:18.087Z,64.32
2023-02-18T16:09:02.922Z,60.20
2023-02-18T16:11:37.177Z,59.75
2023-02-18T16:14:06.967Z,71.25
2023-02-18T16:16:36.836Z,83.10
2023-02-18T16:19:05.592Z,83.60
2023-02-18T16:21:38.649Z,83.20
2023-02-18T16:24:27.459Z,70.18
2023-02-18T16:26:58.985Z,70.18
2023-02-18T16:29:28.235Z,75.38
2023-02-18T16:31:56.789Z,76.53
2023-02-18T16:34:24.986Z,83.63
2023-02-18T16:37:10.844Z,77.90
2023-02-18T16:39:38.783Z,76.85
2023-02-18T16:42:12.764Z,83.43
2023-02-18T16:44:41.810Z,76.43
2023-02-18T16:47:12.099Z,76.90
2023-02-18T16:49:39.967Z,78.63
2023-02-18T16:52:09.444Z,81.10
2023-02-18T16:54:37.995Z,80.35
2023-02-18T16:57:05.776Z,77.20
2023-02-18T16:59:33.586Z,77.40
2023-02-18T17:02:02.072Z,80.68
2023-02-18T17:04:30.327Z,83.90
2023-02-18T17:06:58.426Z,82.75
2023-02-18T17:09:27.856Z,96.78
2023-02-18T17:11:56.617Z,111.97
2023-02-18T17:14:24.445Z,106.82
2023-02-18T17:16:53.557Z,115.28
2023-02-18T17:19:21.868Z,105.65
2023-02-18T17:21:49.969Z,105.63
2023-02-18T17:24:18.610Z,119.43
2023-02-18T17:26:46.671Z,117.72
2023-02-18T17:29:15.037Z,109.20
2023-02-18T17:31:47.879Z,119.43
2023-02-18T17:34:28.059Z,122.97
2023-02-18T17:36:56.515Z,133.27
2023-02-18T17:39:25.276Z,139.48
2023-02-18T17:41:53.523Z,126.63
2023-02-18T17:44:23.054Z,141.05
2023-02-18T17:46:51.462Z,174.63
2023-02-18T17:49:19.414Z,168.43
2023-02-18T17:51:47.547Z,171.05
2023-02-18T17:54:20.313Z,178.25
2023-02-18T17:56:48.738Z,176.27
2023-02-18T17:59:16.884Z,184.95
2023-02-18T18:01:45.049Z,159.27
2023-02-18T18:04:17.265Z,165.52
2023-02-18T18:06:46.149Z,170.85
2023-02-18T18:09:14.521Z,149.27
2023-02-18T18:11:42.241Z,144.32
2023-02-18T18:14:12.339Z,152.05
2023-02-18T18:16:40.298Z,66.13
2023-02-18T18:19:08.127Z,127.63
2023-02-18T18:21:36.648Z,125.40
2023-02-18T18:24:04.644Z,157.00
2023-02-18T18:26:32.642Z,152.45
2023-02-18T18:29:00.681Z,145.25
2023-02-18T18:31:28.938Z,135.98
2023-02-18T18:33:57.647Z,135.48
2023-02-18T18:36:25.524Z,112.05
2023-02-18T18:38:53.595Z,113.63
2023-02-18T18:41:22.371Z,120.35
2023-02-18T18:43:50.198Z,124.90
2023-02-18T18:46:18.851Z,142.65
2023-02-18T18:48:47.593Z,115.30
2023-02-18T18:51:17.196Z,124.00
2023-02-18T18:53:45.305Z,126.65
2023-02-18T18:56:13.373Z,133.18
2023-02-18T18:58:41.357Z,139.18
2023-02-18T19:01:15.293Z,132.40
2023-02-18T19:03:44.152Z,119.85
2023-02-18T19:06:12.578Z,132.70
2023-02-18T19:08:40.741Z,130.90
2023-02-18T19:11:08.662Z,119.38
2023-02-18T19:13:37.187Z,132.23
2023-02-18T19:16:09.472Z,128.18
2023-02-18T19:18:37.441Z,118.18
2023-02-18T19:21:05.741Z,124.93
2023-02-18T19:23:34.356Z,101.15
2023-02-18T19:26:02.131Z,109.38
2023-02-18T19:28:30.067Z,110.57
2023-02-18T19:30:57.871Z,108.72
2023-02-18T19:33:25.765Z,111.75
2023-02-18T19:35:53.471Z,108.72
2023-02-18T19:38:21.252Z,98.93
2023-02-18T19:40:49.341Z,100.63
2023-02-18T19:43:17.482Z,102.13
2023-02-18T19:45:46.684Z,86.20
2023-02-18T19:48:15.318Z,94.13
2023-02-18T19:50:43.429Z,100.45
2023-02-18T19:53:11.395Z,100.95
2023-02-18T19:55:40.188Z,97.65
2023-02-18T19:58:08.091Z,93.70
2023-02-18T20:00:35.984Z,84.13
2023-02-18T20:03:03.668Z,91.13
2023-02-18T20:05:31.456Z,86.93
2023-02-18T20:07:59.457Z,85.35
2023-02-18T20:10:27.453Z,90.80
2023-02-18T20:12:55.467Z,90.57
2023-02-18T20:15:23.641Z,95.78
2023-02-18T20:17:51.940Z,96.10
2023-02-18T20:20:20.204Z,93.30
2023-02-18T20:22:48.450Z,106.28
2023-02-18T20:25:16.324Z,97.95
2023-02-18T20:27:59.529Z,100.82
2023-02-18T20:30:28.224Z,107.65
2023-02-18T20:32:56.143Z,103.35
2023-02-18T20:35:24.205Z,113.13
2023-02-18T20:37:52.227Z,122.60
2023-02-18T20:40:20.283Z,107.55
2023-02-18T20:42:48.085Z,118.38
2023-02-18T20:45:15.987Z,103.80
2023-02-18T20:47:43.882Z,112.18
2023-02-18T20:50:11.610Z,103.50
2023-02-18T20:52:40.190Z,104.30
2023-02-18T20:55:08.606Z,101.35
2023-02-18T20:57:37.128Z,110.75
2023-02-18T21:00:05.815Z,115.82
2023-02-18T21:02:34.039Z,114.85
2023-02-18T21:05:01.829Z,91.05
2023-02-18T21:07:29.942Z,79.78
2023-02-18T21:09:57.744Z,103.30
2023-02-18T21:12:25.933Z,111.85
2023-02-18T21:14:53.993Z,95.30
2023-02-18T21:17:22.630Z,111.15
2023-02-18T21:19:51.045Z,96.05
2023-02-18T21:22:18.930Z,113.95
2023-02-18T21:24:47.116Z,115.60
2023-02-18T21:27:15.149Z,112.68
2023-02-18T21:29:43.205Z,116.22
2023-02-18T21:32:11.381Z,120.45
2023-02-18T21:34:39.300Z,117.45
2023-02-18T21:37:07.095Z,120.45
2023-02-18T21:39:34.874Z,117.72
2023-02-18T21:42:04.787Z,121.60
2023-02-18T21:44:41.951Z,122.40
2023-02-18T21:47:11.479Z,119.00
2023-02-18T21:49:39.466Z,124.38
2023-02-18T21:52:09.795Z,110.72
2023-02-18T21:54:40.522Z,111.95
2023-02-18T21:57:14.222Z,118.28
2023-02-18T21:59:42.543Z,119.47
2023-02-18T22:02:16.541Z,116.18
2023-02-18T22:04:44.498Z,117.20
2023-02-18T22:07:12.544Z,115.60
2023-02-18T22:09:41.042Z,117.20
2023-02-18T22:12:09.258Z,121.72
2023-02-18T22:14:37.052Z,119.93
2023-02-18T22:17:06.099Z,118.63
2023-02-18T22:19:34.585Z,119.03
2023-02-18T22:22:05.334Z,117.95
2023-02-18T22:24:33.223Z,115.85
2023-02-18T22:27:01.905Z,121.13
2023-02-18T22:29:30.697Z,130.05
2023-02-18T22:31:58.947Z,129.50
2023-02-18T22:34:26.984Z,121.82
2023-02-18T22:36:54.729Z,129.07
2023-02-18T22:39:22.722Z,125.43
2023-02-18T22:41:50.774Z,125.93
2023-02-18T22:44:18.504Z,120.00
2023-02-18T22:46:46.925Z,103.38
2023-02-18T22:49:15.055Z,113.97
2023-02-18T22:51:44.189Z,101.18
2023-02-18T22:54:16.176Z,96.15
2023-02-18T22:56:44.646Z,93.93
2023-02-18T22:59:13.154Z,109.13
2023-02-18T23:01:42.799Z,110.10
2023-02-18T23:04:12.277Z,103.05
2023-02-18T23:06:41.550Z,106.82
2023-02-18T23:09:11.941Z,108.22
2023-02-18T23:11:39.689Z,97.22
2023-02-18T23:14:19.435Z,95.95
2023-02-18T23:17:13.704Z,97.55
2023-02-18T23:19:46.493Z,89.90
2023-02-18T23:22:19.907Z,98.20
2023-02-18T23:24:50.079Z,96.63
2023-02-18T23:27:18.132Z,99.68
2023-02-18T23:29:46.187Z,102.13
2023-02-18T23:32:14.224Z,110.90
2023-02-18T23:34:42.530Z,103.40
2023-02-18T23:37:10.853Z,106.35
2023-02-18T23:39:40.210Z,60.50
2023-02-18T23:42:09.041Z,80.10
2023-02-18T23:44:37.061Z,85.40
2023-02-18T23:47:05.162Z,96.15
2023-02-18T23:49:33.515Z,94.60
2023-02-18T23:52:01.597Z,106.55
2023-02-18T23:54:29.889Z,109.35
2023-02-18T23:56:57.981Z,111.53
2023-02-18T23:59:26.230Z,110.95
